KETN/ETN METAR and TAF weather

Enter ICAO airport designator
Station Type Date Time Source
KETN METAR 2022/01/26 19:55 UTC NOAA

KETN 261955Z AUTO 12003KT 10SM OVC033 06/M10 A3028 RMK AO2 T00641104


Station Type Date Time Source
KETN Decoded METAR 2022/01/26 19:55 UTC NOAA

Station name not available
Jan 26, 2022 - 02:55 PM EST / 2022.01.26 1955 UTC
Wind: from the ESE (120 degrees) at 3 MPH (3 KT):0
Visibility: 10 mile(s):0
Sky conditions: overcast
Temperature: 43.5 F (6.4 C)
Dew Point: 13.3 F (-10.4 C)
Relative Humidity: 28%
Pressure (altimeter): 30.28 in. Hg (1025 hPa)
ob: KETN 261955Z AUTO 12003KT 10SM OVC033 06/M10 A3028 RMK AO2 T00641104
cycle: 20

Station Type Date Time Source
KETN TAF UTC NOAA

Error!

Example: see airport list